Time;durP1;ratioP1;P1;durP2;ratioP2;P2;SDS_P1;SDS_P2;PMS_P1;PMS_P2;Temp;Humidity;BMP_temperature;BMP_pressure;BME280_temperature;BME280_humidity;BME280_pressure;Samples;Min_cycle;Max_cycle;Signal;HPM_P1;HPM_P2
2022/08/17 00:00:26;;;;;;;49.97;36.63;;;;;;;19.06;100.00;101062.88;10388358;28;20040;-75
2022/08/17 00:05:28;;;;;;;47.05;35.72;;;;;;;19.04;100.00;101071.56;10405038;28;20036;-74
2022/08/17 00:10:29;;;;;;;50.15;36.35;;;;;;;18.95;100.00;101062.25;10404960;28;20030;-75
2022/08/17 00:15:29;;;;;;;53.60;35.75;;;;;;;18.86;100.00;101066.88;10388032;28;20037;-75
2022/08/17 00:20:30;;;;;;;54.63;35.38;;;;;;;18.81;100.00;101059.44;10421960;28;20033;-74
2022/08/17 00:25:30;;;;;;;50.28;35.42;;;;;;;18.82;100.00;101065.81;10403707;28;20053;-75
2022/08/17 00:30:31;;;;;;;56.60;37.95;;;;;;;18.87;100.00;101076.88;10420583;28;20049;-75
2022/08/17 00:35:31;;;;;;;53.72;36.00;;;;;;;18.85;100.00;101076.34;10420187;28;20044;-73
2022/08/17 00:40:32;;;;;;;53.80;37.30;;;;;;;18.86;100.00;101084.44;10419337;28;20049;-74
2022/08/17 00:45:32;;;;;;;43.25;34.75;;;;;;;18.75;100.00;101075.38;10402685;28;20519;-74
2022/08/17 00:50:33;;;;;;;52.20;36.72;;;;;;;18.64;100.00;101057.16;10437251;28;20230;-74
2022/08/17 00:55:33;;;;;;;51.13;33.97;;;;;;;18.59;100.00;101054.47;10403033;28;20033;-74
2022/08/17 01:00:40;;;;;;;50.78;37.15;;;;;;;18.65;100.00;101074.72;10420160;28;20511;-75
2022/08/17 01:05:40;;;;;;;47.13;34.83;;;;;;;18.60;100.00;101055.28;10443093;28;20036;-75
2022/08/17 01:10:54;;;;;;;49.70;37.03;;;;;;;18.55;100.00;101053.41;10442940;28;20052;-75
2022/08/17 01:16:03;;;;;;;47.15;33.75;;;;;;;18.66;100.00;101068.00;10428526;28;20026;-75
2022/08/17 01:21:08;;;;;;;48.40;35.50;;;;;;;18.54;100.00;101051.75;10457210;28;20037;-74
2022/08/17 01:26:09;;;;;;;49.65;37.40;;;;;;;18.66;100.00;101074.41;10409575;28;20051;-75
2022/08/17 01:31:09;;;;;;;48.13;36.50;;;;;;;18.67;100.00;101070.50;10459119;28;20037;-75
2022/08/17 01:36:10;;;;;;;52.33;39.13;;;;;;;18.64;100.00;101068.31;10425609;28;20044;-74
2022/08/17 01:41:12;;;;;;;53.50;37.13;;;;;;;18.55;100.00;101057.03;10425157;28;20102;-75
2022/08/17 01:46:15;;;;;;;51.53;38.28;;;;;;;18.45;100.00;101042.44;10396913;28;20042;-74
2022/08/17 01:51:16;;;;;;;54.00;38.70;;;;;;;18.40;100.00;101062.84;10400138;28;20034;-74
2022/08/17 01:56:18;;;;;;;53.65;39.38;;;;;;;18.35;100.00;101074.06;10400225;28;20036;-74
2022/08/17 02:01:21;;;;;;;56.95;41.22;;;;;;;18.30;100.00;101077.75;10399820;28;20038;-75
2022/08/17 02:06:21;;;;;;;55.72;38.63;;;;;;;18.21;100.00;101065.66;10381775;28;20045;-75
2022/08/17 02:11:21;;;;;;;56.58;39.67;;;;;;;18.22;100.00;101078.44;10383624;28;20041;-74
2022/08/17 02:16:22;;;;;;;53.95;39.75;;;;;;;18.18;100.00;101068.22;10416802;28;20036;-75
2022/08/17 02:21:22;;;;;;;62.65;40.22;;;;;;;18.24;100.00;101081.75;10382405;28;20063;-76
2022/08/17 02:26:23;;;;;;;52.60;38.42;;;;;;;18.13;100.00;101069.94;10399486;28;20038;-75
2022/08/17 02:31:23;;;;;;;58.17;39.80;;;;;;;17.97;100.00;101046.22;10432288;28;20029;-75
2022/08/17 02:36:24;;;;;;;61.42;39.80;;;;;;;17.99;100.00;101066.22;10398819;28;21051;-75
2022/08/17 02:41:24;;;;;;;58.63;39.38;;;;;;;18.03;100.00;101072.88;10439560;28;20048;-75
2022/08/17 02:46:25;;;;;;;64.20;42.03;;;;;;;18.01;100.00;101074.31;10456985;28;20060;-76
2022/08/17 02:51:25;;;;;;;63.35;44.85;;;;;;;17.93;100.00;101065.47;10439954;28;20033;-75
2022/08/17 02:56:26;;;;;;;60.72;43.47;;;;;;;17.96;100.00;101064.03;10423289;28;20048;-76
2022/08/17 03:01:26;;;;;;;51.97;40.03;;;;;;;17.89;100.00;101047.69;10412353;28;20100;-76
2022/08/17 03:06:27;;;;;;;58.38;42.67;;;;;;;17.68;100.00;101021.22;10382182;28;20552;-76
2022/08/17 03:11:28;;;;;;;58.28;41.28;;;;;;;17.90;100.00;101054.94;10417557;28;20100;-75
2022/08/17 03:16:29;;;;;;;63.83;44.67;;;;;;;17.81;100.00;101034.41;10399680;28;20037;-73
2022/08/17 03:21:29;;;;;;;61.80;42.58;;;;;;;17.73;100.00;101035.06;10401544;28;20220;-75
2022/08/17 03:26:31;;;;;;;67.32;44.38;;;;;;;17.80;100.00;101055.03;10423738;28;20044;-75
2022/08/17 03:31:31;;;;;;;65.22;43.30;;;;;;;17.72;100.00;101052.91;10449064;28;20033;-75
2022/08/17 03:36:32;;;;;;;63.72;45.15;;;;;;;17.70;100.00;101056.00;10445245;28;20068;-74
2022/08/17 03:41:32;;;;;;;64.10;43.63;;;;;;;17.68;100.00;101058.25;10415051;28;20044;-75
2022/08/17 03:57:12;;;;;;;62.95;44.17;;;;;;;17.59;100.00;101064.75;10448779;28;20052;-74
2022/08/17 04:02:22;;;;;;;61.28;42.85;;;;;;;17.53;100.00;101045.34;10429144;28;20061;-75
2022/08/17 04:07:24;;;;;;;65.88;43.58;;;;;;;17.48;100.00;101059.31;10404727;28;20045;-75
2022/08/17 04:12:29;;;;;;;67.82;44.65;;;;;;;17.47;100.00;101060.47;10366472;28;20401;-76
2022/08/17 04:17:29;;;;;;;62.50;42.30;;;;;;;17.49;100.00;101057.38;10361984;28;20494;-75
2022/08/17 04:22:30;;;;;;;66.95;44.92;;;;;;;17.51;100.00;101058.75;10362636;28;20038;-76
2022/08/17 04:27:30;;;;;;;69.53;45.63;;;;;;;17.48;100.00;101050.97;10346152;28;20264;-75
2022/08/17 04:32:32;;;;;;;69.07;45.05;;;;;;;17.67;100.00;101075.25;10363118;28;20034;-76
2022/08/17 04:37:32;;;;;;;76.65;46.38;;;;;;;17.76;100.00;101076.25;10379268;28;20089;-75
2022/08/17 04:42:33;;;;;;;79.63;46.35;;;;;;;17.77;100.00;101082.66;10362476;28;20085;-75
2022/08/17 04:47:33;;;;;;;76.60;48.97;;;;;;;17.90;100.00;101082.78;10362064;28;20034;-75
2022/08/17 04:52:44;;;;;;;70.00;46.40;;;;;;;18.02;100.00;101093.47;10378146;28;20064;-75
2022/08/17 04:57:44;;;;;;;75.93;46.78;;;;;;;18.12;100.00;101095.31;10417030;28;20069;-74
2022/08/17 05:02:46;;;;;;;60.47;41.15;;;;;;;18.19;100.00;101090.22;10418723;28;20444;-75
2022/08/17 05:07:47;;;;;;;62.85;39.47;;;;;;;18.17;100.00;101074.88;10385357;28;20030;-75
2022/08/17 05:13:03;;;;;;;53.35;36.63;;;;;;;18.27;100.00;101081.16;10385212;28;20059;-76
2022/08/17 05:18:04;;;;;;;49.17;37.23;;;;;;;18.22;100.00;101084.00;10379489;28;20034;-75
2022/08/17 05:23:07;;;;;;;46.40;33.78;;;;;;;18.27;100.00;101097.03;10360964;28;20026;-76
2022/08/17 05:28:07;;;;;;;46.45;34.28;;;;;;;18.19;100.00;101095.78;10385958;28;20041;-75
2022/08/17 05:33:15;;;;;;;44.53;33.42;;;;;;;18.21;100.00;101099.09;10402821;28;20049;-75
2022/08/17 05:38:17;;;;;;;41.30;29.88;;;;;;;18.34;100.00;101115.06;10399750;28;20610;-75
2022/08/17 05:43:20;;;;;;;40.55;31.38;;;;;;;18.48;100.00;101104.00;10428003;28;20070;-76
2022/08/17 05:48:21;;;;;;;41.42;29.92;;;;;;;18.59;100.00;101099.06;10457981;28;20171;-75
2022/08/17 05:53:38;;;;;;;41.60;31.42;;;;;;;18.55;100.00;101087.69;10441098;28;20090;-75
2022/08/17 05:58:57;;;;;;;51.17;35.78;;;;;;;18.49;100.00;101065.78;10444518;28;20052;-76
2022/08/17 06:04:31;;;;;;;52.03;33.42;;;;;;;18.58;100.00;101091.81;10426278;28;20044;-75
2022/08/17 06:09:49;;;;;;;52.60;32.20;;;;;;;18.54;100.00;101091.63;10427587;28;20549;-76
2022/08/17 06:15:02;;;;;;;43.88;30.17;;;;;;;18.62;100.00;101104.03;10416057;28;20038;-76
2022/08/17 06:20:11;;;;;;;39.13;27.17;;;;;;;18.72;100.00;101103.88;10414122;28;20029;-75
2022/08/17 06:25:13;;;;;;;42.05;28.30;;;;;;;18.76;100.00;101126.41;10399241;28;20037;-76
2022/08/17 06:30:17;;;;;;;45.92;28.35;;;;;;;18.69;100.00;101126.81;10415834;28;20049;-76
2022/08/17 06:35:27;;;;;;;40.97;28.20;;;;;;;18.71;100.00;101140.44;10382989;28;20041;-76
2022/08/17 06:40:44;;;;;;;46.25;30.10;;;;;;;18.66;100.00;101132.97;10398433;28;20060;-77
2022/08/17 06:45:48;;;;;;;54.80;31.33;;;;;;;18.63;100.00;101116.03;10454251;28;20044;-76
2022/08/17 06:50:52;;;;;;;53.60;33.25;;;;;;;18.55;100.00;101115.56;10343970;28;20486;-76
2022/08/17 06:56:09;;;;;;;58.03;35.15;;;;;;;18.51;100.00;101092.22;10404198;28;20068;-77
2022/08/17 07:01:16;;;;;;;59.90;34.67;;;;;;;18.57;100.00;101123.66;10418447;28;20041;-79
2022/08/17 07:06:18;;;;;;;67.05;41.03;;;;;;;18.51;100.00;101108.13;10391704;28;20044;-81
2022/08/17 07:11:25;;;;;;;76.88;44.40;;;;;;;18.58;100.00;101119.72;10388369;28;20089;-78
2022/08/17 07:16:41;;;;;;;98.07;49.33;;;;;;;18.46;100.00;101122.13;10416964;28;20049;-78
2022/08/17 07:22:03;;;;;;;81.70;45.15;;;;;;;18.37;100.00;101126.72;10405748;28;20033;-76
2022/08/17 07:27:14;;;;;;;73.35;45.70;;;;;;;18.19;100.00;101120.84;10459910;28;20041;-76
2022/08/17 07:32:19;;;;;;;87.90;49.88;;;;;;;18.21;100.00;101137.25;10460660;28;20392;-76
2022/08/17 07:37:20;;;;;;;86.95;50.30;;;;;;;18.27;100.00;101147.19;10420196;28;20044;-75
2022/08/17 07:42:20;;;;;;;82.43;48.10;;;;;;;18.47;100.00;101130.19;10400084;28;20045;-77
2022/08/17 07:52:40;;;;;;;76.18;45.00;;;;;;;19.08;100.00;101120.06;10444615;28;20127;-77
2022/08/17 07:57:40;;;;;;;68.45;43.97;;;;;;;19.40;100.00;101128.69;10443462;28;20033;-78
2022/08/17 08:02:43;;;;;;;63.85;41.58;;;;;;;19.75;100.00;101130.00;10442811;28;20067;-77
2022/08/17 08:07:46;;;;;;;58.92;36.00;;;;;;;20.06;100.00;101132.97;10420382;28;20132;-79
2022/08/17 08:12:47;;;;;;;50.20;32.72;;;;;;;20.21;100.00;101117.00;10457470;28;20668;-80
2022/08/17 08:17:48;;;;;;;52.92;34.50;;;;;;;20.34;100.00;101121.75;10421456;28;20038;-80
2022/08/17 08:23:14;;;;;;;45.83;30.30;;;;;;;20.40;100.00;101106.50;10434043;28;20030;-80
2022/08/17 08:28:23;;;;;;;49.63;31.50;;;;;;;20.51;100.00;101123.88;10377753;28;20068;-81
2022/08/17 08:33:50;;;;;;;53.83;33.55;;;;;;;20.82;100.00;101145.56;10361247;28;20049;-84
2022/08/17 08:39:02;;;;;;;55.23;34.77;;;;;;;20.85;100.00;101130.94;10339349;28;20045;-86
2022/08/17 08:44:11;;;;;;;54.17;37.78;;;;;;;20.93;100.00;101142.19;10383592;28;20045;-85
2022/08/17 08:49:20;;;;;;;57.70;38.58;;;;;;;21.32;100.00;101148.22;10398914;28;20049;-86
2022/08/17 08:54:27;;;;;;;46.55;33.08;;;;;;;21.96;100.00;101156.28;10437039;28;20033;-84
2022/08/17 08:59:49;;;;;;;41.15;29.80;;;;;;;22.28;100.00;101146.66;10458296;28;20056;-80
2022/08/17 09:05:10;;;;;;;45.22;32.55;;;;;;;22.17;100.00;101122.84;10384383;28;20041;-81
2022/08/17 09:10:18;;;;;;;49.75;34.85;;;;;;;22.23;100.00;101144.00;10455355;28;20072;-78
2022/08/17 09:15:21;;;;;;;46.22;33.50;;;;;;;22.23;100.00;101148.75;10440919;28;20120;-77
2022/08/17 09:20:34;;;;;;;48.35;34.33;;;;;;;22.14;100.00;101145.94;10439822;28;20040;-77
2022/08/17 09:26:19;;;;;;;42.80;30.77;;;;;;;22.15;100.00;101153.19;10400085;28;20041;-76
2022/08/17 09:31:23;;;;;;;47.22;34.15;;;;;;;22.07;100.00;101151.19;10430901;28;20442;-79
2022/08/17 09:37:02;;;;;;;49.60;33.78;;;;;;;22.13;100.00;101149.88;10439775;28;20426;-75
2022/08/17 09:42:23;;;;;;;45.08;35.13;;;;;;;22.39;100.00;101147.19;10420680;28;20033;-77
2022/08/17 09:48:01;;;;;;;52.13;37.53;;;;;;;22.43;100.00;101147.31;10414124;28;20037;-77
2022/08/17 09:53:01;;;;;;;47.90;35.60;;;;;;;22.38;100.00;101147.50;10350494;28;20038;-76
2022/08/17 09:58:06;;;;;;;43.45;34.60;;;;;;;22.06;100.00;101132.72;10398564;28;20045;-78
2022/08/17 10:03:22;;;;;;;44.45;34.78;;;;;;;22.08;100.00;101147.25;10415587;28;20060;-78
2022/08/17 10:08:43;;;;;;;47.67;36.13;;;;;;;22.25;100.00;101150.13;10381055;28;20421;-77
2022/08/17 10:13:55;;;;;;;54.58;39.92;;;;;;;22.53;100.00;101144.19;10429317;28;20044;-76
2022/08/17 10:19:06;;;;;;;52.78;38.53;;;;;;;22.83;100.00;101139.59;10384388;28;20041;-80
2022/08/17 10:29:47;;;;;;;53.22;38.88;;;;;;;23.29;100.00;101134.44;10413277;28;20549;-78
2022/08/17 10:34:54;;;;;;;51.35;38.28;;;;;;;23.34;100.00;101137.88;10399269;28;20477;-77
2022/08/17 10:40:35;;;;;;;52.20;40.67;;;;;;;23.38;100.00;101121.19;10395813;28;20037;-77
2022/08/17 10:45:47;;;;;;;54.97;43.33;;;;;;;23.43;100.00;101126.63;10336312;28;20431;-75
2022/08/17 10:51:06;;;;;;;65.22;44.38;;;;;;;23.31;100.00;101115.25;10395294;28;20053;-76
2022/08/17 10:56:13;;;;;;;57.17;41.95;;;;;;;23.45;100.00;101129.91;10372345;28;20030;-75
2022/08/17 11:01:13;;;;;;;54.28;43.20;;;;;;;23.35;100.00;101127.47;10409032;28;20101;-76
2022/08/17 11:06:23;;;;;;;53.70;41.50;;;;;;;23.48;100.00;101126.44;10339893;28;20041;-75
2022/08/17 11:11:44;;;;;;;52.58;42.10;;;;;;;23.69;100.00;101131.31;10302468;28;20038;-76
2022/08/17 11:17:08;;;;;;;53.13;40.65;;;;;;;23.64;100.00;101111.81;10370927;28;20598;-76
2022/08/17 11:22:14;;;;;;;57.85;42.88;;;;;;;23.35;100.00;101121.84;10331521;28;20453;-76
2022/08/17 11:27:28;;;;;;;;;;;;;;;23.30;100.00;101125.66;10333173;28;20045;-75
2022/08/17 11:32:31;;;;;;;56.72;41.83;;;;;;;23.43;100.00;101123.00;10371384;28;19917;-75
2022/08/17 11:37:44;;;;;;;51.95;41.30;;;;;;;23.78;100.00;101112.44;10349544;28;20098;-74
2022/08/17 11:43:04;;;;;;;50.80;39.00;;;;;;;24.01;100.00;101106.53;10373546;28;20053;-76
2022/08/17 11:54:09;;;;;;;45.15;36.17;;;;;;;24.08;100.00;101112.44;10421568;28;20052;-74
2022/08/17 11:59:24;;;;;;;44.13;36.88;;;;;;;24.66;100.00;101107.06;10387344;28;20106;-74
2022/08/17 12:04:25;;;;;;;39.58;32.67;;;;;;;24.75;100.00;101103.00;10378718;28;20038;-75
2022/08/17 12:09:29;;;;;;;51.00;34.13;;;;;;;24.87;100.00;101107.06;10376780;28;20042;-75
2022/08/17 12:14:32;;;;;;;32.72;28.30;;;;;;;24.75;100.00;101100.19;10398784;28;20128;-76
2022/08/17 12:19:33;;;;;;;28.52;25.48;;;;;;;24.38;100.00;101071.84;10418842;28;20045;-75
2022/08/17 12:24:44;;;;;;;27.63;24.83;;;;;;;24.71;100.00;101124.59;10419028;28;20080;-76
2022/08/17 12:29:44;;;;;;;29.52;23.75;;;;;;;24.49;100.00;101119.28;10416834;28;20054;-77
2022/08/17 12:34:46;;;;;;;29.55;26.40;;;;;;;24.59;100.00;101113.25;10397712;28;20167;-78
2022/08/17 12:39:53;;;;;;;26.52;23.73;;;;;;;24.53;100.00;101109.00;10318694;28;20043;-77
2022/08/17 12:44:54;;;;;;;34.45;25.67;;;;;;;24.29;100.00;101093.63;10323798;28;20282;-77
2022/08/17 12:50:02;;;;;;;27.80;24.88;;;;;;;24.23;100.00;101071.66;10359851;28;20050;-77
2022/08/17 12:55:21;;;;;;;31.70;27.17;;;;;;;24.24;100.00;101085.34;10415218;28;20039;-76
2022/08/17 13:00:32;;;;;;;28.33;24.25;;;;;;;24.19;100.00;101085.56;10416133;28;20200;-78
2022/08/17 13:05:37;;;;;;;33.60;28.00;;;;;;;24.34;100.00;101089.75;10382122;28;20038;-77
2022/08/17 13:10:37;;;;;;;29.98;26.88;;;;;;;24.20;100.00;101087.22;10416205;28;20095;-80
2022/08/17 13:15:42;;;;;;;30.17;26.08;;;;;;;24.13;100.00;101079.31;10417560;28;20090;-81
2022/08/17 13:20:52;;;;;;;27.42;24.35;;;;;;;24.12;100.00;101079.66;10400058;28;20044;-81
2022/08/17 13:26:01;;;;;;;24.25;21.67;;;;;;;24.26;100.00;101094.28;10359037;28;20041;-79
2022/08/17 13:31:19;;;;;;;23.63;20.60;;;;;;;24.33;100.00;101083.31;10342063;28;20581;-78
2022/08/17 13:36:28;;;;;;;25.50;22.85;;;;;;;24.29;100.00;101082.34;10428547;28;20045;-80
2022/08/17 13:41:34;;;;;;;30.77;23.77;;;;;;;24.26;100.00;101085.84;10431783;28;20092;-79
2022/08/17 13:46:34;;;;;;;24.73;21.88;;;;;;;24.26;100.00;101060.53;10415123;28;20473;-80
2022/08/17 13:51:40;;;;;;;23.70;21.27;;;;;;;24.45;100.00;101076.09;10430847;28;20045;-81
2022/08/17 13:56:48;;;;;;;24.85;20.63;;;;;;;24.43;100.00;101072.81;10398524;28;20040;-78
2022/08/17 14:01:50;;;;;;;25.65;22.33;;;;;;;24.41;100.00;101077.94;10413144;28;20496;-78
2022/08/17 14:06:52;;;;;;;22.27;19.60;;;;;;;24.49;100.00;101077.06;10398025;28;20060;-80
2022/08/17 14:11:53;;;;;;;23.85;21.33;;;;;;;24.70;100.00;101069.47;10373970;28;20034;-79
2022/08/17 14:16:53;;;;;;;26.40;22.70;;;;;;;24.70;100.00;101062.97;10356568;28;20037;-78
2022/08/17 14:21:57;;;;;;;25.73;22.30;;;;;;;24.45;100.00;101051.59;10373087;28;20478;-79
2022/08/17 14:26:58;;;;;;;27.75;22.40;;;;;;;24.14;100.00;101052.84;10356972;28;20064;-78
2022/08/17 14:32:05;;;;;;;22.10;19.63;;;;;;;23.91;100.00;101043.91;10374532;28;20478;-79
2022/08/17 14:37:06;;;;;;;26.65;19.92;;;;;;;23.71;100.00;101053.94;10353539;28;20053;-80
2022/08/17 14:42:10;;;;;;;23.40;18.20;;;;;;;23.63;100.00;101034.31;10356464;28;20045;-79
2022/08/17 14:47:14;;;;;;;23.45;18.40;;;;;;;23.47;100.00;101034.88;10371339;28;20065;-77
2022/08/17 14:52:17;;;;;;;24.45;19.65;;;;;;;23.19;100.00;101033.66;10388784;28;20030;-81
2022/08/17 14:57:18;;;;;;;24.00;17.60;;;;;;;23.12;100.00;101039.81;10372585;28;20138;-80
2022/08/17 15:02:19;;;;;;;21.15;16.83;;;;;;;22.87;100.00;101027.47;10314815;28;20121;-77
2022/08/17 15:07:21;;;;;;;24.88;20.48;;;;;;;22.70;100.00;101037.56;10371739;28;20069;-79
2022/08/17 15:12:22;;;;;;;26.85;20.85;;;;;;;22.58;100.00;101014.97;10372038;28;20030;-78
2022/08/17 15:17:23;;;;;;;24.55;20.27;;;;;;;22.38;100.00;101021.28;10343533;28;20034;-81
2022/08/17 15:22:24;;;;;;;24.50;19.83;;;;;;;22.19;100.00;101032.78;10396420;28;20057;-77
2022/08/17 15:27:24;;;;;;;23.95;19.17;;;;;;;22.14;100.00;101045.00;10363762;28;20056;-80
2022/08/17 15:32:26;;;;;;;26.33;20.15;;;;;;;22.03;100.00;101026.84;10354691;28;20038;-79
2022/08/17 15:37:27;;;;;;;23.75;19.83;;;;;;;21.59;100.00;101007.16;10362031;28;20038;-80
2022/08/17 15:42:28;;;;;;;26.30;21.48;;;;;;;21.79;100.00;101072.97;10378643;28;20042;-78
2022/08/17 15:47:28;;;;;;;30.30;23.10;;;;;;;21.74;100.00;101098.31;10378829;28;20037;-79
2022/08/17 15:52:29;;;;;;;6.65;5.35;;;;;;;21.29;100.00;101112.44;10338730;28;20065;-79
2022/08/17 15:57:29;;;;;;;20.20;5.32;;;;;;;20.34;100.00;101138.53;10353800;28;20046;-78
2022/08/17 16:02:31;;;;;;;25.38;7.63;;;;;;;19.23;100.00;101151.63;10339365;28;20038;-72
2022/08/17 16:07:31;;;;;;;126.63;13.95;;;;;;;18.62;100.00;101111.56;10361284;28;20054;-76
2022/08/17 16:12:33;;;;;;;8.55;4.13;;;;;;;18.11;100.00;101100.06;10362368;28;20439;-79
2022/08/17 16:17:33;;;;;;;7.18;4.95;;;;;;;18.01;100.00;101088.22;10361679;28;20042;-76
2022/08/17 16:22:36;;;;;;;7.32;4.20;;;;;;;17.99;100.00;101073.78;10344787;28;20580;-75
2022/08/17 16:27:36;;;;;;;7.93;3.53;;;;;;;18.05;100.00;101078.16;10377220;28;20061;-75
2022/08/17 16:32:37;;;;;;;6.63;3.40;;;;;;;18.01;100.00;101083.47;10324510;28;20041;-75
2022/08/17 16:37:39;;;;;;;7.53;3.92;;;;;;;18.01;100.00;101104.94;10365983;28;20053;-75
2022/08/17 16:42:39;;;;;;;5.90;3.13;;;;;;;17.91;100.00;101094.75;10358883;28;20046;-74
2022/08/17 16:47:43;;;;;;;6.93;3.65;;;;;;;17.90;100.00;101102.28;10372928;28;20038;-75
2022/08/17 16:52:46;;;;;;;7.75;4.22;;;;;;;17.94;100.00;101100.56;10356411;28;20065;-74
2022/08/17 16:57:47;;;;;;;6.53;4.25;;;;;;;17.85;100.00;101101.53;10358298;28;20042;-75
2022/08/17 17:02:48;;;;;;;6.82;5.18;;;;;;;17.73;100.00;101113.84;10379400;28;20107;-75
2022/08/17 17:08:18;;;;;;;11.80;7.15;;;;;;;17.77;100.00;101116.06;10399896;28;20096;-76
2022/08/17 17:13:48;;;;;;;7.13;6.30;;;;;;;17.84;100.00;101116.56;10390583;28;20073;-76
2022/08/17 17:19:05;;;;;;;9.25;6.88;;;;;;;17.82;100.00;101125.19;10376081;28;20556;-75
2022/08/17 17:24:07;;;;;;;;;;;;;;;17.20;100.00;101024.88;10338173;28;20046;-76
2022/08/17 17:29:13;;;;;;;11.85;6.47;;;;;;;17.89;100.00;101134.03;10389461;28;19917;-76
2022/08/17 17:34:14;;;;;;;7.47;5.68;;;;;;;17.79;100.00;101120.22;10392036;28;20042;-77
2022/08/17 17:39:30;;;;;;;10.88;5.50;;;;;;;17.86;100.00;101126.28;10373086;28;20061;-77
2022/08/17 17:44:38;;;;;;;9.77;6.45;;;;;;;17.88;100.00;101126.81;10407409;28;20057;-77
2022/08/17 17:49:40;;;;;;;11.35;7.40;;;;;;;17.88;100.00;101101.75;10381646;28;20605;-76
2022/08/17 17:54:52;;;;;;;11.93;8.32;;;;;;;18.04;100.00;101115.47;10344096;28;20037;-77
2022/08/17 18:00:16;;;;;;;12.70;6.90;;;;;;;18.07;100.00;101118.50;10403823;28;20108;-77
2022/08/17 18:05:37;;;;;;;13.07;8.55;;;;;;;18.01;100.00;101116.91;10399199;28;20187;-77
2022/08/17 18:10:38;;;;;;;25.35;13.18;;;;;;;18.04;100.00;101098.75;10400686;28;20539;-77
2022/08/17 18:15:52;;;;;;;33.25;21.13;;;;;;;18.07;100.00;101107.34;10415167;28;20065;-78
2022/08/17 18:20:54;;;;;;;38.97;23.40;;;;;;;18.13;100.00;101108.13;10365238;28;20054;-78
2022/08/17 18:25:54;;;;;;;38.28;26.35;;;;;;;17.90;100.00;101068.00;10329135;28;20078;-80
2022/08/17 18:31:16;;;;;;;40.38;25.90;;;;;;;17.95;100.00;101084.69;10345601;28;20487;-81
2022/08/17 18:36:30;;;;;;;42.90;27.75;;;;;;;18.24;100.00;101131.09;10345337;28;20049;-82
2022/08/17 18:41:34;;;;;;;39.92;25.38;;;;;;;18.08;100.00;101086.72;10315748;28;20034;-81
2022/08/17 18:46:35;;;;;;;46.75;27.25;;;;;;;18.25;100.00;101110.44;10313027;28;20065;-82
2022/08/17 18:51:40;;;;;;;36.97;22.58;;;;;;;18.17;100.00;101092.47;10342951;28;20045;-80
2022/08/17 18:56:59;;;;;;;34.78;23.42;;;;;;;18.24;100.00;101109.63;10341614;28;20065;-83
2022/08/17 19:02:12;;;;;;;42.50;23.05;;;;;;;18.25;100.00;101111.31;10330892;28;20043;-84
2022/08/17 19:07:16;;;;;;;38.22;24.25;;;;;;;18.27;100.00;101122.13;10338885;28;20081;-85
2022/08/17 19:12:38;;;;;;;47.50;24.13;;;;;;;18.24;100.00;101120.78;10347054;28;20050;-84
2022/08/17 19:17:51;;;;;;;42.72;27.35;;;;;;;18.29;100.00;101123.50;10331030;28;20046;-83
2022/08/17 19:22:59;;;;;;;42.80;27.02;;;;;;;18.34;100.00;101131.78;10360910;28;20517;-83
2022/08/17 19:28:07;;;;;;;31.10;23.33;;;;;;;18.34;100.00;101128.16;10347698;28;20049;-85
2022/08/17 19:33:08;;;;;;;24.30;17.25;;;;;;;17.99;100.00;101084.91;10369134;28;20052;-82
2022/08/17 19:38:30;;;;;;;23.15;15.40;;;;;;;18.10;100.00;101150.50;10382224;28;20437;-89
2022/08/17 19:44:01;;;;;;;14.35;11.77;;;;;;;17.81;100.00;101094.84;10357235;28;20046;-89
2022/08/17 19:49:21;;;;;;;12.45;9.77;;;;;;;17.81;100.00;101109.59;10348252;28;20042;-86
2022/08/17 19:54:46;;;;;;;11.50;9.57;;;;;;;17.78;100.00;101114.94;10370798;28;20043;-87
2022/08/17 20:00:00;;;;;;;10.23;9.00;;;;;;;17.79;100.00;101136.91;10380161;28;20034;-84
2022/08/17 20:05:03;;;;;;;12.52;9.82;;;;;;;17.69;100.00;101125.91;10391509;28;20030;-87
2022/08/17 20:10:06;;;;;;;17.85;10.40;;;;;;;17.73;100.00;101138.91;10339310;28;20042;-84
2022/08/17 20:15:09;;;;;;;18.20;13.02;;;;;;;17.81;100.00;101168.09;10388338;28;20038;-84
2022/08/17 20:20:36;;;;;;;19.42;13.35;;;;;;;17.98;100.00;101194.66;10401324;28;20053;-86
2022/08/17 20:25:46;;;;;;;26.35;15.63;;;;;;;18.04;100.00;101199.06;10402805;28;20041;-88
2022/08/17 20:30:47;;;;;;;24.85;16.85;;;;;;;17.98;100.00;101203.84;10382781;28;20053;-87
2022/08/17 20:36:17;;;;;;;20.85;13.18;;;;;;;18.05;100.00;101223.00;10330502;28;20038;-86
2022/08/17 20:41:25;;;;;;;17.52;12.70;;;;;;;17.97;100.00;101207.78;10356937;28;20041;-85
2022/08/17 20:46:26;;;;;;;23.17;12.68;;;;;;;18.09;100.00;101219.34;10339601;28;20074;-84
2022/08/17 20:51:30;;;;;;;19.05;12.63;;;;;;;17.97;100.00;101199.41;10376701;28;20089;-84
2022/08/17 20:56:42;;;;;;;23.15;11.85;;;;;;;18.05;100.00;101197.94;10397871;28;20052;-89
2022/08/17 21:01:44;;;;;;;24.85;12.05;;;;;;;18.00;100.00;101204.38;10406022;28;20056;-86
2022/08/17 21:07:23;;;;;;;18.98;12.23;;;;;;;18.05;100.00;101228.59;10379886;28;20038;-86
2022/08/17 21:12:54;;;;;;;20.40;12.60;;;;;;;17.93;100.00;101221.44;10302652;28;20053;-86
2022/08/17 21:18:05;;;;;;;20.77;13.85;;;;;;;18.04;100.00;101229.69;10366887;28;20034;-89
2022/08/17 21:23:35;;;;;;;18.20;11.98;;;;;;;18.06;100.00;101219.09;10390236;28;20076;-87
2022/08/17 21:29:09;;;;;;;15.27;9.32;;;;;;;17.95;100.00;101207.25;10399558;28;20095;-84
2022/08/17 21:34:32;;;;;;;15.35;9.90;;;;;;;17.80;100.00;101177.56;10416102;28;20053;-83
2022/08/17 21:39:33;;;;;;;20.38;9.88;;;;;;;17.79;100.00;101184.25;10413700;28;21375;-82
2022/08/17 21:44:35;;;;;;;18.23;10.20;;;;;;;17.92;100.00;101230.09;10400526;28;20115;-81
2022/08/17 21:49:36;;;;;;;25.05;11.65;;;;;;;17.76;100.00;101201.56;10342415;28;20045;-82
2022/08/17 21:54:38;;;;;;;27.27;10.85;;;;;;;17.97;100.00;101241.19;10349063;28;20043;-82
2022/08/17 21:59:39;;;;;;;29.45;10.90;;;;;;;17.79;100.00;101216.84;10353542;28;20037;-82
2022/08/17 22:04:40;;;;;;;20.05;9.98;;;;;;;17.85;100.00;101236.03;10373038;28;20057;-80
2022/08/17 22:09:46;;;;;;;28.25;10.68;;;;;;;17.75;100.00;101219.38;10362850;28;20042;-80
2022/08/17 22:14:59;;;;;;;28.30;11.37;;;;;;;17.86;100.00;101242.41;10345652;28;20042;-80
2022/08/17 22:20:04;;;;;;;22.20;10.13;;;;;;;17.74;100.00;101228.88;10358430;28;20117;-82
2022/08/17 22:25:06;;;;;;;22.55;10.82;;;;;;;17.35;100.00;101160.22;10368618;28;20098;-82
2022/08/17 22:30:17;;;;;;;22.08;11.32;;;;;;;17.78;100.00;101227.16;10388747;28;20045;-80
2022/08/17 22:35:40;;;;;;;26.55;12.73;;;;;;;17.81;100.00;101222.97;10372990;28;20030;-81
2022/08/17 22:40:41;;;;;;;23.17;11.98;;;;;;;17.83;100.00;101215.16;10372635;28;20038;-80
2022/08/17 22:45:43;;;;;;;28.25;12.93;;;;;;;17.78;100.00;101201.25;10362218;28;20441;-79
2022/08/17 22:50:44;;;;;;;28.65;14.05;;;;;;;17.75;100.00;101197.09;10348390;28;20034;-80
2022/08/17 23:01:31;;;;;;;;;;;;;;;17.04;100.00;101123.50;10333900;28;20525;-83
2022/08/17 23:06:35;;;;;;;33.35;16.20;;;;;;;17.64;100.00;101212.28;10321806;28;19922;-81
2022/08/17 23:11:43;;;;;;;26.30;15.18;;;;;;;17.72;100.00;101231.97;10354574;28;20113;-85
2022/08/17 23:16:44;;;;;;;21.73;13.90;;;;;;;17.73;100.00;101235.56;10356819;28;20030;-85
2022/08/17 23:21:44;;;;;;;24.00;14.20;;;;;;;17.66;100.00;101221.16;10392223;28;20045;-82